Latest Weather Observations for Gannett Cay

IDQ60801

Issued at 9:02 am EST Wednesday 22 February 2017 (issued every 30 minutes, with the page automatically refreshed every 10 minutes)

About weather observations | Map of weather stations | Latest weather observations for QLD | Other Formats
Station Details ID: 200831 Name: GANNET CAY Lat: -21.98 Lon: 152.47 Height: 2.3 m
Data from the previous 72 hours. | See also: Recent months for locations in Queensland
Date/Time
EST
Temp
°C
App
Temp
°C
Dew
Point
°C
Rel
Hum
%
Delta-T
°C
Wind Press
QNH
hPa
Press
MSL
hPa
Rain since
9am
mm
Dir  Spd
km/h
Gust
km/h
Spd
kts
Gust
kts
22/09:00am 27.6 - - - - SSE 33 39 18 21 1014.2 - -
22/08:47am 27.5 - - - - SE 37 41 20 22 1014.2 - -
22/08:30am 28.0 - - - - ESE 26 32 14 17 1014.2 - -
22/08:29am 28.1 - - - - ESE 26 32 14 17 1014.3 1014.4 -
22/08:00am 28.0 - - - - ESE 24 32 13 17 1014.1 - -
22/07:30am 28.3 - - - - ESE 26 28 14 15 1013.9 - -
22/07:29am 28.2 - - - - ESE 26 - 14 - - 1014.0 -
22/07:00am 28.0 - - - - ESE 24 28 13 15 1013.6 - -
22/06:30am 27.8 - - - - ESE 28 30 15 16 1013.3 - -
22/06:29am 27.8 - - - - ESE 28 - 15 - - 1013.4 -
22/06:00am 27.7 - - - - ESE 26 30 14 16 1013.0 - -
22/05:30am 27.7 - - - - ESE 28 32 15 17 1012.7 - -
22/05:29am 27.6 - - - - ESE 28 - 15 - - 1012.8 -
22/05:00am 27.6 - - - - ESE 28 32 15 17 1012.7 - -
22/04:30am 27.6 - - - - ESE 26 30 14 16 1012.4 - -
22/04:29am 27.6 - - - - ESE 28 - 15 - - 1012.5 -
22/04:00am 27.5 - - - - ESE 26 30 14 16 1012.4 - -
22/03:30am 27.6 - - - - ESE 28 32 15 17 1012.2 - -
22/03:29am 27.7 - - - - ESE 28 - 15 - - 1012.3 -
22/03:00am 27.7 - - - - ESE 28 32 15 17 1012.1 - -
22/02:30am 27.7 - - - - ESE 30 35 16 19 1012.0 - -
22/02:29am 27.6 - - - - ESE 30 - 16 - - 1012.1 -
22/02:00am 27.7 - - - - E 32 35 17 19 1012.1 - -
22/01:30am 27.8 - - - - ESE 32 35 17 19 1012.4 - -
22/01:29am 27.7 - - - - ESE 32 - 17 - - 1012.5 -
22/01:00am 27.8 - - - - ESE 33 37 18 20 1012.7 - -
22/12:30am 27.8 - - - - ESE 35 39 19 21 1013.0 - -
22/12:29am 27.9 - - - - ESE 33 - 18 - - 1013.1 -
22/12:00am 27.8 - - - - ESE 37 43 20 23 1013.1 - -
 
Date/Time
EST
Temp
°C
App
Temp
°C
Dew
Point
°C
Rel
Hum
%
Delta-T
°C
Wind Press
QNH
hPa
Press
MSL
hPa
Rain since
9am
mm
Dir  Spd
km/h
Gust
km/h
Spd
kts
Gust
kts
21/11:30pm 27.7 - - - - ESE 35 41 19 22 1013.3 - -
21/11:29pm 27.7 - - - - ESE 35 - 19 - - 1013.4 -
21/11:00pm 27.9 - - - - ESE 37 41 20 22 1013.4 - -
21/10:30pm 27.9 - - - - ESE 39 43 21 23 1013.6 - -
21/10:29pm 27.9 - - - - ESE 37 - 20 - - 1013.7 -
21/10:00pm 27.8 - - - - ESE 37 41 20 22 1013.8 - -
21/09:30pm 27.9 - - - - ESE 35 41 19 22 1013.9 - -
21/09:29pm 28.1 - - - - ESE 35 - 19 - - 1014.0 -
21/09:00pm 28.0 - - - - SE 35 41 19 22 1013.9 - -
21/08:30pm 28.0 - - - - SE 35 39 19 21 1013.7 - -
21/08:29pm 28.0 - - - - SE 35 - 19 - - 1013.8 -
21/08:00pm 28.1 - - - - SE 35 39 19 21 1013.4 - -
21/07:30pm 28.1 - - - - SE 33 39 18 21 1013.3 - -
21/07:29pm 28.1 - - - - SE 33 - 18 - - 1013.4 -
21/07:00pm 28.0 - - - - SE 32 37 17 20 1013.0 - -
21/06:30pm 28.2 - - - - SE 33 37 18 20 1012.8 - -
21/06:29pm 28.1 - - - - SE 33 - 18 - - 1012.9 -
21/06:00pm 28.2 - - - - SE 33 39 18 21 1012.6 - -
21/05:30pm 28.5 - - - - SE 30 33 16 18 1012.3 - -
21/05:29pm 28.5 - - - - SE 30 - 16 - - 1012.4 -
21/05:00pm 28.6 - - - - SE 28 33 15 18 1012.1 - -
21/04:30pm 28.5 - - - - SE 30 35 16 19 1011.7 - -
21/04:29pm 28.4 - - - - SE 30 - 16 - - 1011.8 -
21/04:00pm 28.1 - - - - SE 28 32 15 17 1011.9 - -
21/03:30pm 26.7 - - - - SE 35 43 19 23 1011.9 - -
21/03:29pm 26.3 - - - - SE 33 - 18 - - 1012.0 -
21/03:00pm 28.7 - - - - SSE 26 30 14 16 1012.0 - -
21/02:30pm 28.6 - - - - SSE 26 28 14 15 1012.1 - -
21/02:29pm 28.6 - - - - SSE 26 - 14 - - 1012.2 -
21/02:00pm 28.5 - - - - SSE 24 28 13 15 1012.2 - -
21/01:30pm 28.3 - - - - SSE 24 26 13 14 1012.4 - -
21/01:29pm 28.4 - - - - SSE 24 - 13 - - 1012.5 -
21/01:00pm 28.4 - - - - SSE 22 26 12 14 1012.5 - -
21/12:30pm 28.1 - - - - SSE 24 28 13 15 1012.8 - -
21/12:29pm 28.2 - - - - SSE 24 - 13 - - 1012.9 -
21/12:00pm 28.2 - - - - SSE 30 32 16 17 1013.3 - -
21/11:30am 28.3 - - - - S 22 24 12 13 1013.5 - -
21/11:29am 28.2 - - - - S 22 - 12 - - 1013.6 -
21/11:00am 28.2 - - - - S 19 24 10 13 1013.6 - -
21/10:30am 28.0 - - - - S 19 22 10 12 1013.7 - -
21/10:29am 28.1 - - - - S 19 - 10 - - 1013.8 -
21/10:00am 27.8 - - - - S 19 20 10 11 1013.7 - -
21/09:30am 27.8 - - - - S 19 22 10 12 1013.7 - -
21/09:29am 27.8 - - - - S 19 - 10 - - 1013.7 -
21/09:00am 27.9 - - - - S 19 20 10 11 1013.6 - -
21/08:30am 27.4 - - - - S 15 17 8 9 1013.4 - -
21/08:29am 27.5 - - - - S 15 - 8 - - 1013.5 -
21/08:00am 27.4 - - - - S 15 19 8 10 1013.1 - -
21/07:30am 26.6 - - - - S 19 22 10 12 1013.2 - -
21/07:29am 26.9 - - - - S 19 - 10 - - 1013.3 -
21/07:00am 26.7 - - - - NNE 9 15 5 8 1013.1 - -
21/06:30am 26.6 - - - - NNE 17 20 9 11 1012.5 - -
21/06:29am 26.8 - - - - NNE 17 - 9 - - 1012.7 -
21/06:00am 27.7 - - - - S 9 11 5 6 1012.2 - -
21/05:30am 27.6 - - - - S 11 15 6 8 1011.9 - -
21/05:29am 27.6 - - - - S 11 - 6 - - 1011.9 -
21/05:00am 27.6 - - - - SE 7 11 4 6 1011.5 - -
21/04:30am 27.7 - - - - E 6 9 3 5 1011.3 - -
21/04:29am 27.7 - - - - E 6 - 3 - - 1011.4 -
21/04:00am 27.8 - - - - E 11 13 6 7 1011.0 - -
21/03:30am 27.7 - - - - ENE 11 13 6 7 1010.6 - -
21/03:29am 27.8 - - - - ENE 11 - 6 - - 1010.7 -
21/03:00am 27.9 - - - - NE 13 15 7 8 1010.4 - -
21/02:30am 27.7 - - - - ENE 13 15 7 8 1010.4 - -
21/02:29am 27.7 - - - - ENE 13 - 7 - - 1010.5 -
21/02:00am 27.7 - - - - ENE 13 15 7 8 1010.5 - -
21/01:30am 27.8 - - - - ENE 15 17 8 9 1010.8 - -
21/01:29am 27.7 - - - - ENE 15 - 8 - - 1010.9 -
21/01:00am 27.8 - - - - NE 15 17 8 9 1011.1 - -
21/12:30am 27.9 - - - - ENE 11 13 6 7 1011.5 - -
21/12:29am 27.9 - - - - ENE 11 - 6 - - 1011.6 -
21/12:00am 28.1 - - - - ENE 13 15 7 8 1011.6 - -
 
Date/Time
EST
Temp
°C
App
Temp
°C
Dew
Point
°C
Rel
Hum
%
Delta-T
°C
Wind Press
QNH
hPa
Press
MSL
hPa
Rain since
9am
mm
Dir  Spd
km/h
Gust
km/h
Spd
kts
Gust
kts
20/11:30pm 27.8 - - - - ENE 13 15 7 8 1011.7 - -
20/11:29pm 27.8 - - - - ENE 13 - 7 - - 1011.8 -
20/11:00pm 27.7 - - - - ENE 13 17 7 9 1011.7 - -
20/10:30pm 27.8 - - - - ENE 13 15 7 8 1011.9 - -
20/10:29pm 27.7 - - - - ENE 13 - 7 - - 1012.0 -
20/10:00pm 27.8 - - - - ENE 7 15 4 8 1011.8 - -
20/09:30pm 27.9 - - - - CALM 0 6 0 3 1011.7 - -
20/09:29pm 27.8 - - - - CALM 0 - 0 - - 1011.8 -
20/09:00pm 27.8 - - - - CALM 0 4 0 2 1011.5 - -
20/08:30pm 27.9 - - - - CALM 0 6 0 3 1011.3 - -
20/08:29pm 27.9 - - - - CALM 0 - 0 - - 1011.4 -
20/08:00pm 27.8 - - - - CALM 0 7 0 4 1011.1 - -
20/07:30pm 27.7 - - - - CALM 0 0 0 0 1010.7 - -
20/07:29pm 27.7 - - - - CALM 0 - 0 - - 1010.8 -
20/07:00pm 27.8 - - - - CALM 0 2 0 1 1010.3 - -
20/06:30pm 28.1 - - - - CALM 0 4 0 2 1010.0 - -
20/06:29pm 28.2 - - - - CALM 0 - 0 - - 1010.1 -
20/06:00pm 28.3 - - - - WSW 4 7 2 4 1009.7 - -
20/05:30pm 28.6 - - - - WSW 6 7 3 4 1009.3 - -
20/05:29pm 28.7 - - - - WSW 6 - 3 - - 1009.5 -
20/05:00pm 28.7 - - - - WSW 6 7 3 4 1009.0 - -
20/04:30pm 28.9 - - - - SW 7 9 4 5 1008.9 - -
20/04:29pm 28.7 - - - - SW 7 - 4 - - 1009.1 -
20/04:00pm 28.4 - - - - SW 9 11 5 6 1008.7 - -
20/03:30pm 28.4 - - - - W 6 7 3 4 1008.6 - -
20/03:29pm 28.6 - - - - W 6 - 3 - - 1008.8 -
20/03:00pm 28.3 - - - - WNW 7 9 4 5 1008.6 - -
20/02:30pm 28.0 - - - - NNW 7 11 4 6 1008.8 - -
20/02:29pm 28.0 - - - - NNW 7 - 4 - - 1009.0 -
20/02:00pm 27.9 - - - - N 6 9 3 5 1008.8 - -
20/01:30pm 27.8 - - - - NNW 9 11 5 6 1009.0 - -
20/01:29pm 27.8 - - - - NNW 9 - 5 - - 1009.2 -
20/01:00pm 27.9 - - - - NNW 7 9 4 5 1009.3 - -
20/12:30pm 27.9 - - - - NW 7 9 4 5 1009.7 - -
20/12:29pm 27.9 - - - - NW 6 - 3 - - 1009.9 -
20/12:00pm 28.1 - - - - NW 6 7 3 4 1010.0 - -
20/11:30am 27.8 - - - - N 4 7 2 4 1010.3 - -
20/11:29am 28.0 - - - - N 4 - 2 - - 1010.4 -
20/11:00am 28.0 - - - - N 7 9 4 5 1010.4 - -
20/10:30am 27.7 - - - - N 7 7 4 4 1010.6 - -
20/10:29am 27.6 - - - - N 7 - 4 - - 1010.7 -
20/10:00am 28.3 - - - - CALM 0 0 0 0 1010.8 - -
20/09:30am 27.8 - - - - CALM 0 0 0 0 1010.7 - -
20/09:29am 27.7 - - - - CALM 0 - 0 - - 1010.8 -
20/09:00am 27.8 - - - - CALM 0 0 0 0 1010.5 - -
20/08:30am 28.7 - - - - NNW 2 6 1 3 1010.4 - -
20/08:29am 29.0 - - - - NNW 2 - 1 - - 1010.5 -
20/08:00am 27.4 - - - - WNW 7 9 4 5 1010.4 - -
20/07:30am 27.3 - - - - WNW 9 11 5 6 1010.2 - -
20/07:29am 27.3 - - - - WNW 9 - 5 - - 1010.3 -
20/07:00am 27.2 - - - - NW 7 11 4 6 1009.9 - -
20/06:30am 27.1 - - - - N 9 9 5 5 1009.5 - -
20/06:29am 27.0 - - - - N 9 - 5 - - 1009.6 -
20/06:00am 26.9 - - - - NNW 9 11 5 6 1008.9 - -
20/05:30am 27.0 - - - - N 9 11 5 6 1008.5 - -
20/05:29am 27.0 - - - - N 9 - 5 - - 1008.7 -
20/05:00am 27.0 - - - - N 7 9 4 5 1008.4 - -
20/04:30am 27.0 - - - - NNW 9 11 5 6 1008.2 - -
20/04:29am 26.9 - - - - N 9 - 5 - - 1008.4 -
20/04:00am 26.9 - - - - N 9 11 5 6 1007.8 - -
20/03:30am 26.9 - - - - N 7 9 4 5 1007.8 - -
20/03:29am 26.9 - - - - N 7 - 4 - - 1008.0 -
20/03:00am 26.9 - - - - N 7 9 4 5 1007.9 - -
20/02:30am 27.0 - - - - N 7 11 4 6 1008.1 - -
20/02:29am 27.0 - - - - N 7 - 4 - - 1008.3 -
20/02:00am 27.1 - - - - NNW 9 11 5 6 1008.5 - -
20/01:30am 27.1 - - - - NNW 9 13 5 7 1008.6 - -
20/01:29am 27.1 - - - - NNW 9 - 5 - - 1008.8 -
20/01:00am 27.1 - - - - N 6 9 3 5 1008.7 - -
20/12:30am 27.2 - - - - NNW 9 11 5 6 1008.9 - -
20/12:29am 27.2 - - - - NNW 9 - 5 - - 1009.1 -
20/12:00am 27.3 - - - - NW 9 13 5 7 1009.3 - -
 
Date/Time
EST
Temp
°C
App
Temp
°C
Dew
Point
°C
Rel
Hum
%
Delta-T
°C
Wind Press
QNH
hPa
Press
MSL
hPa
Rain since
9am
mm
Dir  Spd
km/h
Gust
km/h
Spd
kts
Gust
kts
19/11:30pm 27.3 - - - - N 11 15 6 8 1009.3 - -
19/11:29pm 27.3 - - - - N 11 - 6 - - 1009.4 -
19/11:00pm 27.4 - - - - N 11 15 6 8 1009.0 - -
19/10:30pm 27.4 - - - - N 11 15 6 8 1009.3 - -
19/10:29pm 27.4 - - - - N 11 - 6 - - 1009.5 -
19/10:00pm 27.3 - - - - N 11 17 6 9 1009.3 - -
19/09:30pm 27.4 - - - - N 9 11 5 6 1009.3 - -
19/09:29pm 27.4 - - - - N 9 - 5 - - 1009.4 -
19/09:00pm 27.4 - - - - N 9 11 5 6 1009.3 - -
19/08:30pm 27.3 - - - - N 11 13 6 7 1008.7 - -
19/08:29pm 27.4 - - - - N 11 - 6 - - 1008.9 -
19/08:00pm 27.4 - - - - N 11 13 6 7 1008.4 - -
19/07:30pm 27.4 - - - - N 9 13 5 7 1008.2 - -
19/07:29pm 27.4 - - - - N 9 - 5 - - 1008.4 -
19/07:00pm 27.4 - - - - N 11 13 6 7 1007.9 - -
19/06:30pm 27.4 - - - - N 9 13 5 7 1007.6 - -
19/06:29pm 27.4 - - - - N 9 - 5 - - 1007.7 -
19/06:00pm 27.5 - - - - N 11 15 6 8 1007.1 - -
19/05:30pm 27.5 - - - - NNW 9 13 5 7 1006.7 - -
19/05:29pm 27.6 - - - - NNW 9 - 5 - - 1006.9 -
19/05:00pm 27.7 - - - - N 11 13 6 7 1006.4 - -
19/04:30pm 27.6 - - - - N 9 11 5 6 1006.5 - -
19/04:29pm 27.6 - - - - N 9 - 5 - - 1006.7 -
19/04:00pm 27.6 - - - - NNE 9 11 5 6 1006.6 - -
19/03:30pm 27.7 - - - - NNE 9 13 5 7 1006.8 - -
19/03:29pm 27.7 - - - - NNE 11 - 6 - - 1007.0 -
19/03:00pm 27.5 - - - - NNE 13 15 7 8 1006.9 - -
19/02:30pm 27.4 - - - - NNE 15 17 8 9 1007.0 - -
19/02:29pm 27.5 - - - - NNE 15 - 8 - - 1007.2 -
19/02:00pm 27.6 - - - - NNE 9 13 5 7 1007.2 - -
19/01:30pm 27.7 - - - - NE 7 9 4 5 1007.5 - -
19/01:29pm 27.7 - - - - NE 7 - 4 - - 1007.8 -
19/01:00pm 27.5 - - - - N 7 9 4 5 1007.9 - -
19/12:30pm 27.6 - - - - NE 6 7 3 4 1008.3 - -
19/12:29pm 27.7 - - - - NE 6 - 3 - - 1008.5 -
19/12:00pm 27.9 - - - - NNE 6 7 3 4 1008.7 - -
19/11:30am 28.0 - - - - ENE 7 9 4 5 1009.0 - -
19/11:29am 27.7 - - - - ENE 7 - 4 - - 1009.2 -
19/11:00am 27.7 - - - - ENE 11 13 6 7 1009.0 - -
19/10:30am 27.3 - - - - ENE 11 15 6 8 1009.5 - -
19/10:29am 27.4 - - - - ENE 11 - 6 - - 1009.6 -
19/10:00am 28.2 - - - - E 11 13 6 7 1009.6 - -
19/09:30am 28.4 - - - - ESE 9 13 5 7 1009.8 - -
19/09:29am 28.2 - - - - ESE 9 - 5 - - 1009.9 -

Other Formats:

Comma delimited format used in spreadsheet applications
http://www.bom.gov.au/fwo/IDQ60801/IDQ60801.94379.axf

JavaScript Object Notation format (JSON) in row-major order
http://www.bom.gov.au/fwo/IDQ60801/IDQ60801.94379.json